createdAt,value
2023-01-10T00:01:43.955Z,4.80
2023-01-10T00:04:15.835Z,4.90
2023-01-10T00:06:47.607Z,4.90
2023-01-10T00:09:20.740Z,4.90
2023-01-10T00:12:11.079Z,4.90
2023-01-10T00:14:42.948Z,4.90
2023-01-10T00:17:14.729Z,4.90
2023-01-10T00:19:46.596Z,4.90
2023-01-10T00:22:20.302Z,4.90
2023-01-10T00:24:52.308Z,4.90
2023-01-10T00:27:24.170Z,4.90
2023-01-10T00:29:58.167Z,4.90
2023-01-10T00:32:32.332Z,4.90
2023-01-10T00:35:09.390Z,4.90
2023-01-10T00:37:43.606Z,4.90
2023-01-10T00:40:15.458Z,4.90
2023-01-10T00:43:05.942Z,4.90
2023-01-10T00:45:37.766Z,4.90
2023-01-10T00:48:09.534Z,4.90
2023-01-10T00:50:41.386Z,4.90
2023-01-10T00:53:15.473Z,4.90
2023-01-10T00:55:47.341Z,4.90
2023-01-10T00:58:19.125Z,4.90
2023-01-10T01:00:50.960Z,4.90
2023-01-10T01:03:23.445Z,4.90
2023-01-10T01:05:55.211Z,4.80
2023-01-10T01:08:26.963Z,4.80
2023-01-10T01:10:58.764Z,4.80
2023-01-10T01:13:33.637Z,4.80
2023-01-10T01:16:05.625Z,4.80
2023-01-10T01:18:37.591Z,4.80
2023-01-10T01:21:11.631Z,4.70
2023-01-10T01:23:43.460Z,4.70
2023-01-10T01:26:15.251Z,4.70
2023-01-10T01:28:47.004Z,4.70
2023-01-10T01:31:20.994Z,4.60
2023-01-10T01:33:53.047Z,4.60
2023-01-10T01:36:24.833Z,4.60
2023-01-10T01:54:58.764Z,4.50
2023-01-10T01:57:32.294Z,4.50
2023-01-10T02:00:07.161Z,4.40
2023-01-10T02:02:54.003Z,4.40
2023-01-10T02:05:34.417Z,4.40
2023-01-10T02:08:06.824Z,4.40
2023-01-10T02:10:41.810Z,4.30
2023-01-10T02:13:15.060Z,4.30
2023-01-10T02:15:46.853Z,4.30
2023-01-10T02:18:19.075Z,4.30
2023-01-10T02:21:09.592Z,4.20
2023-01-10T02:23:47.359Z,4.20
2023-01-10T02:26:37.093Z,4.20
2023-01-10T02:29:27.645Z,4.20
2023-01-10T02:32:02.138Z,4.20
2023-01-10T02:34:33.917Z,4.20
2023-01-10T02:37:13.476Z,4.20
2023-01-10T02:40:00.296Z,4.20
2023-01-10T02:42:44.162Z,4.30
2023-01-10T02:45:25.125Z,4.30
2023-01-10T02:47:57.851Z,4.30
2023-01-10T02:50:35.826Z,4.30
2023-01-10T02:53:11.039Z,4.30
2023-01-10T02:56:01.553Z,4.30
2023-01-10T02:58:48.592Z,4.20
2023-01-10T03:01:25.450Z,4.10
2023-01-10T03:04:19.988Z,4.00
2023-01-10T03:07:04.315Z,3.90
2023-01-10T03:09:49.515Z,3.80
2023-01-10T03:12:23.648Z,3.80
2023-01-10T03:14:58.462Z,3.70
2023-01-10T03:17:31.111Z,3.70
2023-01-10T03:20:06.255Z,3.70
2023-01-10T03:22:39.481Z,3.70
2023-01-10T03:25:13.570Z,3.70
2023-01-10T03:27:45.343Z,3.70
2023-01-10T03:30:26.179Z,3.70
2023-01-10T03:32:59.541Z,3.70
2023-01-10T03:35:41.493Z,3.60
2023-01-10T03:38:20.972Z,3.60
2023-01-10T03:41:06.319Z,3.60
2023-01-10T03:43:56.746Z,3.60
2023-01-10T03:46:36.462Z,3.50
2023-01-10T03:49:09.541Z,3.50
2023-01-10T03:51:45.012Z,3.40
2023-01-10T03:54:17.284Z,3.40
2023-01-10T03:56:50.018Z,3.40
2023-01-10T03:59:24.790Z,3.30
2023-01-10T04:01:56.782Z,3.30
2023-01-10T04:04:28.615Z,3.30
2023-01-10T04:07:00.354Z,3.30
2023-01-10T04:09:32.184Z,3.40
2023-01-10T04:12:03.974Z,3.40
2023-01-10T04:14:35.864Z,3.40
2023-01-10T04:17:07.735Z,3.40
2023-01-10T04:19:39.540Z,3.50
2023-01-10T04:22:13.616Z,3.50
2023-01-10T04:24:47.205Z,3.50
2023-01-10T04:27:19.025Z,3.50
2023-01-10T04:29:50.799Z,3.60
2023-01-10T04:32:22.535Z,3.60
2023-01-10T04:34:54.369Z,3.60
2023-01-10T04:37:26.116Z,3.70
2023-01-10T04:39:57.944Z,3.70
2023-01-10T04:42:29.767Z,3.70
2023-01-10T04:45:01.615Z,3.80
2023-01-10T04:47:33.411Z,3.80
2023-01-10T04:50:05.436Z,3.80
2023-01-10T04:52:37.215Z,3.80
2023-01-10T04:55:11.810Z,3.80
2023-01-10T04:57:43.565Z,3.80
2023-01-10T05:00:15.470Z,3.80
2023-01-10T05:02:49.581Z,3.90
2023-01-10T05:05:21.455Z,3.90
2023-01-10T05:07:53.204Z,3.90
2023-01-10T05:10:25.037Z,3.90
2023-01-10T05:12:59.272Z,3.90
2023-01-10T05:15:31.202Z,3.90
2023-01-10T05:18:05.045Z,3.90
2023-01-10T05:20:36.936Z,3.90
2023-01-10T05:23:08.694Z,3.90
2023-01-10T05:25:40.532Z,3.90
2023-01-10T05:28:12.294Z,3.90
2023-01-10T05:30:44.107Z,3.90
2023-01-10T05:33:15.868Z,3.90
2023-01-10T05:35:47.660Z,3.90
2023-01-10T05:38:19.393Z,3.90
2023-01-10T05:40:54.593Z,3.90
2023-01-10T05:43:26.675Z,3.90
2023-01-10T05:45:58.487Z,3.90
2023-01-10T05:48:30.286Z,3.90
2023-01-10T05:51:02.117Z,3.90
2023-01-10T05:53:33.941Z,3.90
2023-01-10T05:56:07.780Z,3.90
2023-01-10T05:58:39.591Z,3.90
2023-01-10T06:01:11.485Z,3.90
2023-01-10T06:03:43.430Z,3.90
2023-01-10T06:06:15.223Z,3.90
2023-01-10T06:08:47.011Z,3.90
2023-01-10T06:11:18.803Z,3.90
2023-01-10T06:13:55.804Z,3.90
2023-01-10T06:16:27.577Z,3.90
2023-01-10T06:18:59.374Z,3.90
2023-01-10T06:21:33.287Z,3.80
2023-01-10T06:24:05.186Z,3.80
2023-01-10T06:26:36.946Z,3.80
2023-01-10T06:29:08.777Z,3.80
2023-01-10T06:31:40.657Z,3.80
2023-01-10T06:34:12.475Z,3.70
2023-01-10T06:36:44.254Z,3.70
2023-01-10T06:39:16.020Z,3.70
2023-01-10T06:41:50.140Z,3.70
2023-01-10T06:44:24.154Z,3.70
2023-01-10T06:46:55.980Z,3.60
2023-01-10T06:49:27.789Z,3.70
2023-01-10T06:51:59.600Z,3.70
2023-01-10T06:54:31.361Z,3.60
2023-01-10T06:57:05.950Z,3.60
2023-01-10T06:59:38.016Z,3.60
2023-01-10T07:02:10.481Z,3.60
2023-01-10T07:04:42.235Z,3.50
2023-01-10T07:07:14.058Z,3.50
2023-01-10T07:09:46.382Z,3.50
2023-01-10T07:12:18.293Z,3.40
2023-01-10T07:14:50.047Z,3.40
2023-01-10T07:17:21.915Z,3.40
2023-01-10T07:19:53.670Z,3.30
2023-01-10T07:22:25.457Z,3.30
2023-01-10T07:24:57.252Z,3.30
2023-01-10T07:27:30.654Z,3.30
2023-01-10T07:30:02.521Z,3.30
2023-01-10T07:32:36.656Z,3.40
2023-01-10T07:35:08.701Z,3.40
2023-01-10T07:37:40.513Z,3.50
2023-01-10T07:40:12.552Z,3.50
2023-01-10T07:42:44.393Z,3.50
2023-01-10T07:45:18.426Z,3.50
2023-01-10T07:47:52.304Z,3.50
2023-01-10T07:50:24.058Z,3.50
2023-01-10T07:52:56.174Z,3.60
2023-01-10T07:55:28.863Z,3.50
2023-01-10T07:58:00.749Z,3.50
2023-01-10T08:00:32.545Z,3.50
2023-01-10T08:03:06.955Z,3.50
2023-01-10T08:05:41.305Z,3.60
2023-01-10T08:08:13.243Z,3.60
2023-01-10T08:10:44.976Z,3.60
2023-01-10T08:13:19.200Z,3.70
2023-01-10T08:15:52.497Z,3.70
2023-01-10T08:18:26.694Z,3.80
2023-01-10T08:20:59.188Z,3.70
2023-01-10T08:23:33.335Z,3.80
2023-01-10T08:26:05.924Z,3.70
2023-01-10T08:28:37.781Z,3.80
2023-01-10T08:31:10.357Z,3.70
2023-01-10T08:33:42.232Z,3.80
2023-01-10T08:36:18.121Z,3.80
2023-01-10T08:38:51.165Z,3.80
2023-01-10T08:41:23.182Z,3.80
2023-01-10T08:43:55.055Z,3.80
2023-01-10T08:46:29.098Z,3.80
2023-01-10T08:49:00.949Z,3.80
2023-01-10T08:51:32.747Z,3.90
2023-01-10T08:54:04.654Z,3.90
2023-01-10T08:56:37.474Z,3.90
2023-01-10T08:59:09.291Z,3.90
2023-01-10T09:01:41.149Z,4.00
2023-01-10T09:04:13.017Z,4.10
2023-01-10T09:06:44.880Z,4.10
2023-01-10T09:09:16.706Z,4.20
2023-01-10T09:11:50.836Z,4.30
2023-01-10T09:14:25.106Z,4.30
2023-01-10T09:16:56.846Z,4.40
2023-01-10T09:19:28.678Z,4.50
2023-01-10T09:22:07.044Z,4.60
2023-01-10T09:24:39.413Z,4.50
2023-01-10T09:27:13.510Z,4.60
2023-01-10T09:29:45.311Z,4.60
2023-01-10T09:32:17.045Z,4.70
2023-01-10T09:34:48.836Z,4.70
2023-01-10T09:37:20.575Z,4.70
2023-01-10T09:39:53.023Z,4.70
2023-01-10T09:42:28.250Z,4.70
2023-01-10T09:45:05.977Z,4.70
2023-01-10T09:47:46.878Z,4.70
2023-01-10T09:50:30.454Z,4.70
2023-01-10T09:53:05.076Z,4.70
2023-01-10T09:55:39.209Z,4.70
2023-01-10T09:58:12.896Z,4.70
2023-01-10T10:00:48.749Z,4.80
2023-01-10T10:03:28.923Z,4.80
2023-01-10T10:06:11.188Z,4.90
2023-01-10T10:08:45.549Z,4.90
2023-01-10T10:11:26.207Z,5.00
2023-01-10T10:14:04.177Z,5.00
2023-01-10T10:16:51.217Z,5.00
2023-01-10T10:19:32.251Z,5.00
2023-01-10T10:22:06.890Z,5.10
2023-01-10T10:24:41.737Z,5.10
2023-01-10T10:27:24.159Z,5.10
2023-01-10T10:29:58.952Z,5.20
2023-01-10T10:32:36.916Z,5.20
2023-01-10T10:35:23.972Z,5.20
2023-01-10T10:37:58.320Z,5.30
2023-01-10T10:40:33.108Z,5.30
2023-01-10T10:43:15.450Z,5.30
2023-01-10T10:45:49.856Z,5.40
2023-01-10T10:48:24.182Z,5.50
2023-01-10T10:50:55.899Z,5.50
2023-01-10T10:53:31.424Z,5.60
2023-01-10T10:56:03.609Z,5.60
2023-01-10T10:58:43.661Z,5.70
2023-01-10T11:01:16.119Z,5.70
2023-01-10T11:03:50.207Z,5.90
2023-01-10T11:06:23.804Z,5.90
2023-01-10T11:08:57.518Z,6.00
2023-01-10T11:11:34.067Z,6.00
2023-01-10T11:14:08.969Z,6.10
2023-01-10T11:16:42.294Z,6.10
2023-01-10T11:19:18.998Z,6.20
2023-01-10T11:22:06.515Z,6.20
2023-01-10T11:24:38.302Z,6.20
2023-01-10T11:27:17.971Z,6.20
2023-01-10T11:29:51.346Z,6.20
2023-01-10T11:32:24.908Z,6.20
2023-01-10T11:35:00.480Z,6.20
2023-01-10T11:37:35.345Z,6.20
2023-01-10T11:40:18.642Z,6.20
2023-01-10T11:42:51.096Z,6.30
2023-01-10T11:45:27.675Z,6.30
2023-01-10T11:48:08.178Z,6.40
2023-01-10T11:50:41.409Z,6.40
2023-01-10T11:53:32.239Z,6.40
2023-01-10T11:56:04.726Z,6.40
2023-01-10T11:58:36.760Z,6.40
2023-01-10T12:01:25.912Z,6.40
2023-01-10T12:04:01.083Z,6.40
2023-01-10T12:06:33.639Z,6.40
2023-01-10T12:09:05.443Z,6.40
2023-01-10T12:11:37.234Z,6.40
2023-01-10T12:14:18.670Z,6.50
2023-01-10T12:17:00.705Z,6.50
2023-01-10T12:19:32.636Z,6.60
2023-01-10T12:22:06.312Z,6.70
2023-01-10T12:24:40.918Z,6.80
2023-01-10T12:27:14.139Z,7.00
2023-01-10T12:29:56.380Z,7.10
2023-01-10T12:32:30.905Z,7.10
2023-01-10T12:35:06.372Z,7.00
2023-01-10T12:37:45.621Z,7.00
2023-01-10T12:40:20.419Z,7.00
2023-01-10T12:43:16.036Z,6.80
2023-01-10T12:45:50.928Z,6.70
2023-01-10T12:48:22.714Z,6.60
2023-01-10T12:51:01.584Z,6.50
2023-01-10T12:53:39.289Z,6.50
2023-01-10T12:56:13.590Z,6.40
2023-01-10T12:58:47.531Z,6.40
2023-01-10T13:01:24.211Z,6.30
2023-01-10T13:04:02.833Z,6.20
2023-01-10T13:06:38.770Z,6.20
2023-01-10T13:09:13.555Z,6.10
2023-01-10T13:11:48.275Z,6.00
2023-01-10T13:14:22.789Z,6.00
2023-01-10T13:17:17.593Z,5.90
2023-01-10T13:20:10.458Z,5.90
2023-01-10T13:22:45.842Z,5.90
2023-01-10T13:25:25.876Z,5.80
2023-01-10T13:27:57.655Z,5.80
2023-01-10T13:30:35.194Z,5.80
2023-01-10T13:33:08.692Z,5.70
2023-01-10T13:35:41.832Z,5.60
2023-01-10T13:38:20.365Z,5.60
2023-01-10T13:41:05.951Z,5.60
2023-01-10T13:43:57.652Z,5.60
2023-01-10T13:46:35.194Z,5.60
2023-01-10T13:49:10.047Z,5.60
2023-01-10T13:52:01.813Z,5.60
2023-01-10T13:54:36.120Z,5.60
2023-01-10T13:57:28.651Z,5.60
2023-01-10T14:00:19.864Z,5.60
2023-01-10T14:02:51.746Z,5.60
2023-01-10T14:05:26.232Z,5.60
2023-01-10T14:07:58.285Z,5.60
2023-01-10T14:10:31.467Z,5.60
2023-01-10T14:13:13.187Z,5.50
2023-01-10T14:15:46.192Z,5.40
2023-01-10T14:18:27.398Z,5.40
2023-01-10T14:21:02.576Z,5.30
2023-01-10T14:23:42.481Z,5.20
2023-01-10T14:26:46.844Z,5.20
2023-01-10T14:29:19.116Z,5.10
2023-01-10T14:31:56.107Z,5.00
2023-01-10T14:34:29.575Z,5.00
2023-01-10T14:37:03.407Z,4.90
2023-01-10T14:39:38.761Z,4.90
2023-01-10T14:42:14.022Z,4.90
2023-01-10T14:45:12.127Z,4.90
2023-01-10T14:47:44.167Z,4.90
2023-01-10T14:50:28.175Z,4.80
2023-01-10T14:53:00.622Z,4.80
2023-01-10T14:55:32.443Z,4.80
2023-01-10T14:58:04.205Z,4.70
2023-01-10T15:00:40.792Z,4.70
2023-01-10T15:03:19.705Z,4.60
2023-01-10T15:05:52.906Z,4.60
2023-01-10T15:08:25.919Z,4.60
2023-01-10T15:11:02.893Z,4.50
2023-01-10T15:13:39.017Z,4.50
2023-01-10T15:16:18.917Z,4.50
2023-01-10T15:18:51.029Z,4.50
2023-01-10T15:21:24.472Z,4.60
2023-01-10T15:23:56.292Z,4.60
2023-01-10T15:26:29.792Z,4.60
2023-01-10T15:29:19.358Z,4.60
2023-01-10T15:31:52.301Z,4.60
2023-01-10T15:34:28.923Z,4.60
2023-01-10T15:37:01.810Z,4.60
2023-01-10T15:39:39.188Z,4.60
2023-01-10T15:42:12.302Z,4.50
2023-01-10T15:44:52.564Z,4.50
2023-01-10T15:47:50.941Z,4.50
2023-01-10T15:50:28.426Z,4.50
2023-01-10T15:53:06.142Z,4.50
2023-01-10T15:55:45.690Z,4.50
2023-01-10T15:58:20.362Z,4.50
2023-01-10T16:00:53.158Z,4.60
2023-01-10T16:03:25.111Z,4.60
2023-01-10T16:05:59.270Z,4.60
2023-01-10T16:08:32.997Z,4.60
2023-01-10T16:11:09.138Z,4.70
2023-01-10T16:13:43.021Z,4.70
2023-01-10T16:16:17.411Z,4.70
2023-01-10T16:18:49.351Z,4.70
2023-01-10T16:21:21.972Z,4.70
2023-01-10T16:23:53.860Z,4.70
2023-01-10T16:26:25.710Z,4.70
2023-01-10T16:28:57.537Z,4.80
2023-01-10T16:31:29.365Z,4.70
2023-01-10T16:34:03.318Z,4.70
2023-01-10T16:36:35.585Z,4.70
2023-01-10T16:39:12.086Z,4.80
2023-01-10T16:42:03.497Z,4.80
2023-01-10T16:44:37.758Z,4.80
2023-01-10T16:47:11.621Z,4.80
2023-01-10T16:49:43.539Z,4.80
2023-01-10T16:52:16.317Z,4.80
2023-01-10T16:54:48.196Z,4.80
2023-01-10T16:57:20.060Z,4.80
2023-01-10T16:59:51.871Z,4.80
2023-01-10T17:02:24.935Z,4.80
2023-01-10T17:04:58.033Z,4.80
2023-01-10T17:07:29.802Z,4.80
2023-01-10T17:10:04.541Z,4.90
2023-01-10T17:12:37.226Z,4.90
2023-01-10T17:15:12.678Z,4.90
2023-01-10T17:17:45.180Z,4.90
2023-01-10T17:20:17.294Z,4.90
2023-01-10T17:22:49.038Z,4.90
2023-01-10T17:25:20.909Z,4.80
2023-01-10T17:27:52.886Z,4.90
2023-01-10T17:30:24.715Z,4.90
2023-01-10T17:32:58.712Z,4.90
2023-01-10T17:35:33.329Z,4.90
2023-01-10T17:38:05.087Z,4.90
2023-01-10T17:40:39.840Z,4.90
2023-01-10T17:43:12.520Z,4.90
2023-01-10T17:45:45.619Z,4.90
2023-01-10T17:48:18.257Z,4.90
2023-01-10T17:50:55.194Z,4.80
2023-01-10T17:53:27.093Z,4.90
2023-01-10T17:56:01.179Z,4.90
2023-01-10T17:58:33.415Z,4.90
2023-01-10T18:01:05.419Z,4.80
2023-01-10T18:03:40.131Z,4.80
2023-01-10T18:06:22.902Z,4.80
2023-01-10T18:08:55.408Z,4.80
2023-01-10T18:11:28.868Z,4.80
2023-01-10T18:14:20.558Z,4.80
2023-01-10T18:16:54.627Z,4.80
2023-01-10T18:19:29.847Z,4.80
2023-01-10T18:22:02.308Z,4.80
2023-01-10T18:24:34.047Z,4.80
2023-01-10T18:27:05.831Z,4.80
2023-01-10T18:29:38.072Z,4.80
2023-01-10T18:32:12.251Z,4.80
2023-01-10T18:34:44.092Z,4.80
2023-01-10T18:37:19.468Z,4.80
2023-01-10T18:39:54.322Z,4.80
2023-01-10T18:42:28.633Z,4.80
2023-01-10T18:45:00.734Z,4.80
2023-01-10T18:47:32.980Z,4.70
2023-01-10T18:50:05.260Z,4.70
2023-01-10T18:52:37.172Z,4.60
2023-01-10T18:55:11.287Z,4.60
2023-01-10T18:57:43.647Z,4.50
2023-01-10T19:00:18.237Z,4.50
2023-01-10T19:02:50.196Z,4.40
2023-01-10T19:05:22.044Z,4.40
2023-01-10T19:07:53.963Z,4.40
2023-01-10T19:10:25.857Z,4.40
2023-01-10T19:13:00.405Z,4.40
2023-01-10T19:15:32.372Z,4.40
2023-01-10T19:18:06.685Z,4.30
2023-01-10T19:20:38.520Z,4.20
2023-01-10T19:23:10.442Z,4.20
2023-01-10T19:25:42.213Z,4.20
2023-01-10T19:28:14.058Z,4.10
2023-01-10T19:31:03.067Z,4.10
2023-01-10T19:33:37.671Z,4.10
2023-01-10T19:36:09.841Z,4.00
2023-01-10T19:38:41.701Z,4.00
2023-01-10T19:41:16.546Z,4.00
2023-01-10T19:43:48.409Z,4.00
2023-01-10T19:46:20.249Z,3.90
2023-01-10T19:48:53.507Z,3.90
2023-01-10T19:51:25.297Z,3.90
2023-01-10T19:54:00.418Z,3.90
2023-01-10T19:56:32.355Z,3.90
2023-01-10T19:59:04.317Z,3.80
2023-01-10T20:01:38.536Z,3.70
2023-01-10T20:04:10.791Z,3.70
2023-01-10T20:06:42.844Z,3.60
2023-01-10T20:09:14.820Z,3.60
2023-01-10T20:11:46.996Z,3.50
2023-01-10T20:14:19.699Z,3.50
2023-01-10T20:16:52.435Z,3.50
2023-01-10T20:19:26.791Z,3.50
2023-01-10T20:21:58.564Z,3.40
2023-01-10T20:24:30.629Z,3.40
2023-01-10T20:27:06.588Z,3.40
2023-01-10T20:29:42.897Z,3.40
2023-01-10T20:32:15.235Z,3.40
2023-01-10T20:34:47.527Z,3.40
2023-01-10T20:37:23.676Z,3.30
2023-01-10T20:39:55.519Z,3.30
2023-01-10T20:42:29.565Z,3.30
2023-01-10T20:45:01.357Z,3.30
2023-01-10T20:47:33.439Z,3.30
2023-01-10T20:50:05.570Z,3.30
2023-01-10T20:52:40.290Z,3.30
2023-01-10T20:55:15.910Z,3.30
2023-01-10T20:57:50.123Z,3.30
2023-01-10T21:00:25.295Z,3.20
2023-01-10T21:02:59.375Z,3.20
2023-01-10T21:05:36.148Z,3.20
2023-01-10T21:08:07.983Z,3.10
2023-01-10T21:10:42.818Z,3.10
2023-01-10T21:13:16.904Z,3.10
2023-01-10T21:15:52.495Z,3.00
2023-01-10T21:18:30.512Z,2.90
2023-01-10T21:21:02.376Z,2.90
2023-01-10T21:23:35.863Z,2.90
2023-01-10T21:26:10.014Z,2.90
2023-01-10T21:28:42.986Z,2.90
2023-01-10T21:31:18.939Z,2.80
2023-01-10T21:33:50.819Z,2.80
2023-01-10T21:36:24.696Z,2.70
2023-01-10T21:38:56.471Z,2.70
2023-01-10T21:41:46.937Z,2.70
2023-01-10T21:44:20.331Z,2.70
2023-01-10T21:46:54.339Z,2.70
2023-01-10T21:49:26.121Z,2.70
2023-01-10T21:51:58.111Z,2.70
2023-01-10T21:54:32.486Z,2.70
2023-01-10T21:57:04.486Z,2.70
2023-01-10T21:59:41.721Z,2.70
2023-01-10T22:02:15.344Z,2.70
2023-01-10T22:04:47.732Z,2.80
2023-01-10T22:07:23.906Z,2.80
2023-01-10T22:09:55.824Z,2.80
2023-01-10T22:12:30.733Z,2.80
2023-01-10T22:15:03.092Z,2.80
2023-01-10T22:17:35.127Z,2.70
2023-01-10T22:20:07.371Z,2.70
2023-01-10T22:22:39.232Z,2.70
2023-01-10T22:25:13.585Z,2.70
2023-01-10T22:27:45.444Z,2.70
2023-01-10T22:30:17.364Z,2.70
2023-01-10T22:32:54.463Z,2.70
2023-01-10T22:35:26.353Z,2.70
2023-01-10T22:37:58.118Z,2.70
2023-01-10T22:40:29.882Z,2.70
2023-01-10T22:43:04.023Z,2.70
2023-01-10T22:45:37.068Z,2.70
2023-01-10T22:48:09.654Z,2.80
2023-01-10T22:50:47.128Z,2.80
2023-01-10T22:53:19.011Z,2.80
2023-01-10T22:55:56.169Z,2.90
2023-01-10T22:58:28.024Z,2.90
2023-01-10T23:01:02.664Z,2.90
2023-01-10T23:03:34.794Z,2.90
2023-01-10T23:06:07.019Z,3.00
2023-01-10T23:08:41.576Z,3.00
2023-01-10T23:11:14.682Z,3.00
2023-01-10T23:13:46.863Z,3.00
2023-01-10T23:16:21.240Z,3.10
2023-01-10T23:18:53.200Z,3.10
2023-01-10T23:21:25.802Z,3.10
2023-01-10T23:23:57.768Z,3.10
2023-01-10T23:26:29.519Z,3.10
2023-01-10T23:29:01.417Z,3.10
2023-01-10T23:31:33.162Z,3.10
2023-01-10T23:34:07.170Z,3.10
2023-01-10T23:36:38.915Z,3.00
2023-01-10T23:39:10.719Z,3.10
2023-01-10T23:41:42.477Z,3.10
2023-01-10T23:44:14.396Z,3.10
2023-01-10T23:46:46.148Z,3.10
2023-01-10T23:49:17.925Z,3.10
2023-01-10T23:51:52.170Z,3.10
2023-01-10T23:54:23.979Z,3.00
2023-01-10T23:56:55.751Z,3.10
2023-01-10T23:59:27.628Z,3.00
